Time;durP1;ratioP1;P1;durP2;ratioP2;P2;SDS_P1;SDS_P2;PMS_P1;PMS_P2;Temp;Humidity;BMP_temperature;BMP_pressure;BME280_temperature;BME280_humidity;BME280_pressure;Samples;Min_cycle;Max_cycle;Signal;HPM_P1;HPM_P2
2023/06/27 00:01:41;;;;;;;;;2.00;2.00;;;;;15.31;55.05;100271.78;5099596;28;8841;-59
2023/06/27 00:04:09;;;;;;;;;0.50;0.50;;;;;15.23;55.59;100274.28;5099397;28;8813;-58
2023/06/27 00:06:41;;;;;;;;;1.00;1.00;;;;;15.15;55.81;100271.47;5099098;28;8841;-57
2023/06/27 00:09:09;;;;;;;;;2.00;1.00;;;;;15.07;55.72;100275.84;5099565;28;8841;-56
2023/06/27 00:11:37;;;;;;;;;4.00;3.00;;;;;15.02;56.48;100275.47;5099068;28;8829;-56
2023/06/27 00:14:05;;;;;;;;;1.00;1.00;;;;;14.96;56.14;100276.84;5098185;28;8839;-57
2023/06/27 00:16:34;;;;;;;;;2.50;2.50;;;;;14.93;55.90;100284.31;5098879;28;8849;-58
2023/06/27 00:19:04;;;;;;;;;1.50;1.00;;;;;14.89;55.92;100281.13;5098664;28;8860;-57
2023/06/27 00:21:31;;;;;;;;;1.00;1.00;;;;;14.86;56.40;100280.53;5099502;28;8955;-57
2023/06/27 00:24:00;;;;;;;;;1.00;1.00;;;;;14.81;56.50;100282.78;5098907;28;8872;-58
2023/06/27 00:26:28;;;;;;;;;1.25;1.25;;;;;14.77;56.09;100274.19;5099198;28;8975;-58
2023/06/27 00:28:55;;;;;;;;;3.00;1.00;;;;;14.75;56.78;100280.66;5098226;28;8821;-56
2023/06/27 00:31:24;;;;;;;;;1.00;1.00;;;;;14.68;56.33;100275.03;5081182;28;8882;-56
2023/06/27 00:33:52;;;;;;;;;1.50;1.00;;;;;14.63;56.53;100276.44;5099227;28;8856;-57
2023/06/27 00:36:19;;;;;;;;;1.00;1.00;;;;;14.58;56.54;100273.31;5099180;28;8895;-57
2023/06/27 00:38:47;;;;;;;;;1.00;1.00;;;;;14.52;56.47;100274.72;5098204;28;8828;-58
2023/06/27 00:41:15;;;;;;;;;1.00;1.00;;;;;14.50;56.74;100273.16;5089649;28;8855;-57
2023/06/27 00:43:43;;;;;;;;;1.50;1.50;;;;;14.46;57.07;100269.06;5097993;28;9533;-58
2023/06/27 00:46:10;;;;;;;;;1.00;1.00;;;;;14.42;57.23;100276.53;5098784;28;8914;-57
2023/06/27 00:48:38;;;;;;;;;1.50;1.00;;;;;14.37;57.35;100278.78;5098661;28;8814;-58
2023/06/27 00:51:06;;;;;;;;;2.00;2.00;;;;;14.34;57.38;100268.31;5098157;28;9557;-58
2023/06/27 00:53:34;;;;;;;;;3.00;2.50;;;;;14.34;57.37;100268.31;5098758;28;8971;-57
2023/06/27 00:56:03;;;;;;;;;3.00;2.50;;;;;14.36;57.41;100263.66;5098601;28;8829;-57
2023/06/27 00:58:30;;;;;;;;;3.00;1.00;;;;;14.44;56.63;100271.91;5098182;28;8825;-56
2023/06/27 01:01:00;;;;;;;;;1.00;1.00;;;;;14.49;56.65;100266.13;5098250;28;8833;-58
2023/06/27 01:03:32;;;;;;;;;3.00;2.50;;;;;14.48;56.87;100273.28;5098279;28;8891;-57
2023/06/27 01:06:01;;;;;;;;;0.50;0.00;;;;;14.46;57.18;100274.41;5097855;28;8868;-58
2023/06/27 01:08:29;;;;;;;;;2.00;2.00;;;;;14.39;56.90;100268.78;5097511;28;8861;-57
2023/06/27 01:10:56;;;;;;;;;0.25;0.25;;;;;14.36;57.23;100269.03;5097451;28;8973;-56
2023/06/27 01:13:24;;;;;;;;;2.50;2.50;;;;;14.34;57.64;100268.31;5098198;28;8855;-56
2023/06/27 01:15:52;;;;;;;;;3.00;1.50;;;;;14.33;57.50;100266.63;5097758;28;8833;-56
2023/06/27 01:18:21;;;;;;;;;1.00;1.00;;;;;14.31;57.29;100270.44;5097161;28;8857;-56
2023/06/27 01:20:49;;;;;;;;;0.00;0.00;;;;;14.30;57.44;100266.06;5098153;28;8972;-57
2023/06/27 01:23:17;;;;;;;;;3.00;3.00;;;;;14.28;57.18;100266.19;5097534;28;8829;-59
2023/06/27 01:25:45;;;;;;;;;3.00;1.50;;;;;14.27;57.27;100271.72;5097583;28;9541;-57
2023/06/27 01:28:13;;;;;;;;;1.50;1.50;;;;;14.27;57.48;100266.34;5098043;28;9511;-56
2023/06/27 01:30:42;;;;;;;;;2.50;2.50;;;;;14.27;57.04;100271.72;5097959;28;8857;-57
2023/06/27 01:33:11;;;;;;;;;1.00;1.00;;;;;14.27;57.39;100264.50;5096956;28;8833;-58
2023/06/27 01:35:39;;;;;;;;;2.00;2.00;;;;;14.28;57.41;100265.38;5095724;28;8876;-57
2023/06/27 01:38:07;;;;;;;;;2.00;2.00;;;;;14.29;57.10;100267.06;5096574;28;8840;-56
2023/06/27 01:40:36;;;;;;;;;1.50;1.50;;;;;14.30;57.65;100258.03;5097260;28;8847;-58
2023/06/27 01:43:04;;;;;;;;;1.50;1.50;;;;;14.30;57.16;100253.53;5097038;28;8901;-56
2023/06/27 01:45:31;;;;;;;;;2.50;1.00;;;;;14.30;57.07;100253.53;5097477;28;8849;-57
2023/06/27 01:47:59;;;;;;;;;3.75;3.00;;;;;14.29;57.37;100257.19;5097454;28;8837;-59
2023/06/27 01:50:27;;;;;;;;;2.00;2.00;;;;;14.30;57.34;100255.34;5096900;28;8845;-59
2023/06/27 01:52:56;;;;;;;;;3.00;3.00;;;;;14.30;57.28;100253.53;5096742;28;8840;-56
2023/06/27 01:55:23;;;;;;;;;1.00;1.00;;;;;14.33;57.15;100247.88;5096425;28;8906;-56
2023/06/27 01:57:51;;;;;;;;;3.50;3.50;;;;;14.36;57.21;100255.63;5097140;28;8852;-57
2023/06/27 02:00:19;;;;;;;;;3.00;3.00;;;;;14.36;57.11;100247.59;5097080;28;8836;-58
2023/06/27 02:02:47;;;;;;;;;3.00;3.00;;;;;14.37;57.52;100252.00;5096955;28;8845;-58
2023/06/27 02:05:15;;;;;;;;;1.00;1.00;;;;;14.39;57.17;100251.84;5095923;28;8845;-56
2023/06/27 02:07:42;;;;;;;;;2.50;2.50;;;;;14.39;57.40;100247.34;5097023;28;8861;-58
2023/06/27 02:10:10;;;;;;;;;3.00;1.00;;;;;14.41;57.24;100244.53;5097141;28;8888;-58
2023/06/27 02:12:38;;;;;;;;;0.00;0.00;;;;;14.40;57.38;100243.66;5096958;28;9739;-57
2023/06/27 02:15:06;;;;;;;;;3.00;3.00;;;;;14.41;57.35;100249.88;5096312;28;8872;-56
2023/06/27 02:17:33;;;;;;;;;4.50;4.00;;;;;14.44;57.70;100249.59;5096762;28;8860;-58
2023/06/27 02:20:01;;;;;;;;;1.00;1.00;;;;;14.46;57.06;100253.84;5096407;28;8934;-58
2023/06/27 02:22:29;;;;;;;;;3.00;1.00;;;;;14.48;57.19;100251.03;5096587;28;8837;-56
2023/06/27 02:24:57;;;;;;;;;2.50;1.50;;;;;14.50;56.78;100249.03;5096409;28;8842;-58
2023/06/27 02:27:24;;;;;;;;;3.00;3.00;;;;;14.52;57.25;100244.38;5096509;28;9503;-58
2023/06/27 02:29:52;;;;;;;;;1.00;1.00;;;;;14.50;57.61;100241.00;5096676;28;8888;-57
2023/06/27 02:32:19;;;;;;;;;3.00;3.00;;;;;14.50;57.19;100238.31;5096445;28;8836;-56
2023/06/27 02:34:47;;;;;;;;;5.00;4.25;;;;;14.50;57.11;100241.00;5095948;28;8830;-56
2023/06/27 02:37:15;;;;;;;;;3.50;2.00;;;;;14.50;57.34;100236.47;5095763;28;8896;-58
2023/06/27 02:39:43;;;;;;;;;3.00;3.00;;;;;14.48;57.75;100241.13;5095942;28;8868;-58
2023/06/27 02:42:10;;;;;;;;;3.00;3.00;;;;;14.50;57.77;100238.31;5096426;28;8848;-57
2023/06/27 02:44:38;;;;;;;;;3.25;2.50;;;;;14.51;57.29;100240.03;5095385;28;8840;-56
2023/06/27 02:47:06;;;;;;;;;4.00;4.00;;;;;14.53;57.43;100240.72;5096028;28;8830;-56
2023/06/27 02:49:34;;;;;;;;;2.00;1.00;;;;;14.55;57.72;100244.09;5096692;28;9522;-56
2023/06/27 02:52:02;;;;;;;;;2.00;2.00;;;;;14.55;57.18;100246.78;5096265;28;8860;-58
2023/06/27 02:54:29;;;;;;;;;4.00;4.00;;;;;14.53;57.10;100238.03;5095401;28;8863;-58
2023/06/27 02:56:57;;;;;;;;;3.00;3.00;;;;;14.52;57.33;100239.03;5095702;28;8861;-57
2023/06/27 02:59:25;;;;;;;;;4.50;4.00;;;;;14.50;57.27;100238.31;5096195;28;8852;-57
2023/06/27 03:01:52;;;;;;;;;1.00;1.00;;;;;14.48;57.16;100229.59;5095816;28;8825;-55
2023/06/27 03:04:21;;;;;;;;;3.00;3.00;;;;;14.45;57.51;100233.38;5092190;28;8918;-58
2023/06/27 03:06:49;;;;;;;;;5.50;3.50;;;;;14.44;57.97;100234.38;5095396;28;8845;-58
2023/06/27 03:09:17;;;;;;;;;3.75;3.50;;;;;14.42;58.08;100224.78;5095187;28;8883;-56
2023/06/27 03:11:45;;;;;;;;;4.00;4.00;;;;;14.43;58.08;100234.50;5095828;28;8829;-58
2023/06/27 03:14:17;;;;;;;;;1.00;1.00;;;;;14.43;58.20;100232.66;5095241;28;8899;-58
2023/06/27 03:16:44;;;;;;;;;3.75;3.00;;;;;14.43;58.08;100242.53;5095524;28;9067;-57
2023/06/27 03:19:12;;;;;;;;;2.50;2.50;;;;;14.45;57.62;100243.25;5095381;28;8825;-57
2023/06/27 03:21:40;;;;;;;;;2.00;2.00;;;;;14.47;58.07;100249.31;5095051;28;8837;-58
2023/06/27 03:24:07;;;;;;;;;4.00;4.00;;;;;14.53;57.93;100248.75;5095783;28;8843;-58
2023/06/27 03:26:35;;;;;;;;;3.00;3.00;;;;;14.56;57.64;100248.50;5095595;28;8837;-58
2023/06/27 03:29:03;;;;;;;;;3.00;3.00;;;;;14.59;57.47;100242.84;5095468;28;8853;-57
2023/06/27 03:31:31;;;;;;;;;0.00;0.00;;;;;14.61;57.83;100246.22;5095863;28;8833;-59
2023/06/27 03:33:59;;;;;;;;;3.00;1.50;;;;;14.63;57.31;100246.94;5096279;28;8843;-58
2023/06/27 03:36:28;;;;;;;;;3.00;1.50;;;;;14.67;57.42;100248.34;5102616;28;8837;-57
2023/06/27 03:38:56;;;;;;;;;2.50;2.50;;;;;14.72;57.33;100238.88;5101917;28;8865;-58
2023/06/27 03:41:24;;;;;;;;;2.50;2.50;;;;;14.79;57.46;100245.38;5100477;28;8841;-58
2023/06/27 03:43:51;;;;;;;;;2.50;2.50;;;;;14.88;57.42;100251.75;5101055;28;8833;-57
2023/06/27 03:46:19;;;;;;;;;1.00;1.00;;;;;14.98;57.39;100252.56;5101153;28;9582;-59
2023/06/27 03:48:51;;;;;;;;;2.75;2.75;;;;;15.08;57.05;100248.91;5100983;28;9506;-59
2023/06/27 03:51:18;;;;;;;;;4.50;4.00;;;;;15.20;56.70;100246.91;5101548;28;8855;-59
2023/06/27 03:53:46;;;;;;;;;1.00;1.00;;;;;15.34;56.42;100247.34;5100765;28;8847;-59
2023/06/27 03:56:14;;;;;;;;;2.50;2.50;;;;;15.44;56.22;100248.16;5101582;28;8845;-59
2023/06/27 03:58:42;;;;;;;;;3.25;3.25;;;;;15.53;56.04;100236.56;5101165;28;8876;-59
2023/06/27 04:01:11;;;;;;;;;3.75;3.25;;;;;15.59;56.37;100240.47;5101923;28;8841;-59
2023/06/27 04:03:38;;;;;;;;;3.25;2.75;;;;;15.64;55.95;100238.22;5101438;28;8833;-57
2023/06/27 04:06:06;;;;;;;;;2.50;2.50;;;;;15.68;56.76;100239.59;5101477;28;8849;-59
2023/06/27 04:08:34;;;;;;;;;3.00;3.00;;;;;15.76;56.04;100247.78;5101825;28;8867;-59
2023/06/27 04:11:02;;;;;;;;;1.00;1.00;;;;;15.83;56.24;100247.03;5102323;28;8948;-58
2023/06/27 04:13:30;;;;;;;;;2.00;2.00;;;;;15.95;56.03;100245.88;5101185;28;8859;-59
2023/06/27 04:15:57;;;;;;;;;3.00;3.00;;;;;16.05;55.79;100240.41;5102116;28;8844;-58
2023/06/27 04:18:25;;;;;;;;;4.00;4.00;;;;;16.14;55.43;100244.94;5101964;28;8863;-57
2023/06/27 04:20:52;;;;;;;;;3.00;3.00;;;;;16.22;55.71;100243.16;5101660;28;8875;-58
2023/06/27 04:23:20;;;;;;;;;3.00;3.00;;;;;16.25;55.82;100246.38;5101449;28;8829;-58
2023/06/27 04:25:48;;;;;;;;;3.00;3.00;;;;;16.24;55.88;100243.84;5102274;28;8837;-57
2023/06/27 04:28:16;;;;;;;;;4.00;3.00;;;;;16.23;55.52;100243.00;5101719;28;8833;-57
2023/06/27 04:30:44;;;;;;;;;0.40;0.40;;;;;16.23;56.02;100235.97;5101302;28;8837;-59
2023/06/27 04:33:13;;;;;;;;;3.75;3.75;;;;;16.23;55.99;100231.41;5101183;28;9620;-59
2023/06/27 04:35:40;;;;;;;;;1.00;1.00;;;;;16.27;56.05;100228.25;5101223;28;8857;-57
2023/06/27 04:38:14;;;;;;;;;3.00;3.00;;;;;16.31;56.10;100226.13;5101124;28;8964;-58
2023/06/27 04:40:42;;;;;;;;;4.25;3.50;;;;;16.33;55.60;100227.66;5101660;28;8867;-57
2023/06/27 04:43:09;;;;;;;;;3.25;3.25;;;;;16.36;55.98;100238.13;5100795;28;8848;-59
2023/06/27 04:45:37;;;;;;;;;2.60;2.60;;;;;16.38;56.07;100228.09;5100360;28;9488;-56
2023/06/27 04:48:06;;;;;;;;;1.50;1.00;;;;;16.41;55.99;100227.78;5097914;28;8837;-58
2023/06/27 04:50:35;;;;;;;;;1.00;1.00;;;;;16.46;55.57;100228.19;5098871;28;8863;-58
2023/06/27 04:53:03;;;;;;;;;2.50;2.50;;;;;16.53;55.75;100225.72;5097655;28;8850;-57
2023/06/27 04:55:31;;;;;;;;;1.00;1.00;;;;;16.61;55.71;100225.78;5098037;28;8891;-57
2023/06/27 04:57:59;;;;;;;;;3.00;2.00;;;;;16.67;55.59;100231.44;5097568;28;8871;-59
2023/06/27 05:00:27;;;;;;;;;3.00;3.00;;;;;16.75;55.63;100234.19;5098530;28;9701;-57
2023/06/27 05:02:56;;;;;;;;;3.75;2.50;;;;;16.83;55.53;100210.06;5097833;28;8829;-58
2023/06/27 05:05:24;;;;;;;;;2.00;2.00;;;;;16.91;55.54;100220.88;5097843;28;8841;-59
2023/06/27 05:07:52;;;;;;;;;4.00;4.00;;;;;16.98;54.79;100221.97;5097077;28;8967;-59
2023/06/27 05:10:20;;;;;;;;;2.60;1.00;;;;;17.08;55.10;100235.31;5098158;28;8821;-59
2023/06/27 05:12:47;;;;;;;;;1.40;1.40;;;;;17.18;55.09;100226.16;5097612;28;8828;-57
2023/06/27 05:15:15;;;;;;;;;4.00;3.20;;;;;17.32;55.13;100225.56;5097537;28;8865;-58
2023/06/27 05:17:43;;;;;;;;;1.40;1.40;;;;;17.50;54.69;100225.56;5097365;28;8829;-59
2023/06/27 05:20:12;;;;;;;;;3.20;3.00;;;;;17.67;53.99;100243.50;5097663;28;8863;-56
2023/06/27 05:22:40;;;;;;;;;4.80;3.60;;;;;17.81;53.88;100242.91;5097445;28;8826;-57
2023/06/27 05:25:07;;;;;;;;;3.20;2.60;;;;;17.91;53.94;100230.16;5096524;28;8833;-59
2023/06/27 05:27:35;;;;;;;;;3.00;3.00;;;;;17.98;54.07;100225.81;5096838;28;8919;-57
2023/06/27 05:30:03;;;;;;;;;3.00;3.00;;;;;18.04;53.61;100234.09;5096891;28;8837;-59
2023/06/27 05:32:31;;;;;;;;;3.00;3.00;;;;;18.14;53.62;100225.88;5096863;28;9713;-59
2023/06/27 05:34:59;;;;;;;;;3.40;3.00;;;;;18.24;53.40;100229.28;5096476;28;8852;-59
2023/06/27 05:37:27;;;;;;;;;3.00;3.00;;;;;18.38;53.23;100234.09;5096986;28;8845;-57
2023/06/27 05:39:55;;;;;;;;;7.00;3.80;;;;;18.53;52.77;100237.84;5096472;28;8841;-59
2023/06/27 05:42:22;;;;;;;;;3.20;3.20;;;;;18.62;52.74;100237.69;5097096;28;9522;-59
2023/06/27 05:44:50;;;;;;;;;2.60;2.60;;;;;18.69;52.46;100233.31;5096486;28;8859;-59
2023/06/27 05:47:18;;;;;;;;;4.40;4.40;;;;;18.72;52.55;100232.97;5096310;28;8841;-58
2023/06/27 05:49:47;;;;;;;;;3.00;3.00;;;;;18.75;52.80;100231.81;5096064;28;8960;-59
2023/06/27 05:52:15;;;;;;;;;4.80;4.80;;;;;18.79;53.04;100231.28;5095295;28;8872;-58
2023/06/27 05:54:43;;;;;;;;;3.00;1.40;;;;;18.90;52.46;100227.44;5095570;28;8837;-57
2023/06/27 05:57:10;;;;;;;;;4.00;4.00;;;;;19.00;52.47;100233.50;5095726;28;8841;-58
2023/06/27 05:59:38;;;;;;;;;4.00;4.00;;;;;19.06;52.41;100224.72;5095597;28;8849;-56
2023/06/27 06:02:06;;;;;;;;;4.00;3.20;;;;;19.06;52.87;100230.94;5096122;28;9503;-57
2023/06/27 06:04:34;;;;;;;;;4.80;4.00;;;;;19.13;52.28;100231.97;5096037;28;8864;-59
2023/06/27 06:07:03;;;;;;;;;6.00;4.00;;;;;19.19;52.26;100225.94;5095835;28;9519;-57
2023/06/27 06:09:31;;;;;;;;;7.40;6.00;;;;;19.24;52.89;100234.38;5096139;28;8837;-58
2023/06/27 06:11:59;;;;;;;;;5.60;4.00;;;;;19.23;52.60;100232.69;5095491;28;8840;-57
2023/06/27 06:14:27;;;;;;;;;3.60;3.60;;;;;19.23;52.46;100238.09;5095869;28;8844;-59
2023/06/27 06:16:55;;;;;;;;;3.00;3.00;;;;;19.23;52.82;100242.63;5096042;28;8968;-57
2023/06/27 06:19:22;;;;;;;;;3.00;3.00;;;;;19.25;52.65;100240.59;5095870;28;8849;-57
2023/06/27 06:21:50;;;;;;;;;3.80;3.80;;;;;19.28;52.44;100234.88;5095179;28;8857;-59
2023/06/27 06:24:18;;;;;;;;;8.40;5.80;;;;;19.32;52.97;100237.06;5095219;28;8916;-58
2023/06/27 06:26:47;;;;;;;;;3.60;3.60;;;;;19.33;52.44;100238.75;5095035;28;8844;-58
2023/06/27 06:29:15;;;;;;;;;3.80;3.80;;;;;19.34;53.01;100242.31;5095230;28;8875;-57
2023/06/27 06:31:44;;;;;;;;;3.80;3.20;;;;;19.30;52.62;100239.09;5094537;28;8845;-58
2023/06/27 06:34:12;;;;;;;;;8.40;6.40;;;;;19.23;52.79;100240.78;5093704;28;8829;-59
2023/06/27 06:36:40;;;;;;;;;4.00;3.80;;;;;19.16;53.02;100247.00;5094980;28;9622;-59
2023/06/27 06:39:08;;;;;;;;;5.80;4.60;;;;;19.04;53.30;100249.19;5094340;28;8837;-58
2023/06/27 06:41:36;;;;;;;;;5.20;5.20;;;;;18.95;53.67;100250.19;5095270;28;9650;-59
2023/06/27 06:44:03;;;;;;;;;4.80;4.80;;;;;18.82;54.33;100241.75;5096113;28;8894;-59
2023/06/27 06:46:31;;;;;;;;;4.40;4.40;;;;;18.68;54.42;100242.41;5095637;28;8833;-59
2023/06/27 06:48:59;;;;;;;;;5.20;3.40;;;;;18.59;54.46;100237.19;5093971;28;8845;-58
2023/06/27 06:51:27;;;;;;;;;4.80;4.00;;;;;18.53;54.61;100244.06;5094435;28;9503;-59
2023/06/27 06:53:55;;;;;;;;;4.40;4.40;;;;;18.48;55.27;100249.13;5095280;28;8975;-57
2023/06/27 06:56:23;;;;;;;;;4.00;3.60;;;;;18.47;55.36;100244.75;5095219;28;8845;-57
2023/06/27 06:58:51;;;;;;;;;4.00;3.60;;;;;18.47;54.90;100239.34;5093898;28;8845;-59
2023/06/27 07:01:19;;;;;;;;;6.20;5.20;;;;;18.47;55.17;100250.13;5093975;28;8840;-59
2023/06/27 07:03:46;;;;;;;;;3.40;3.40;;;;;18.51;55.27;100250.66;5094140;28;8861;-58
2023/06/27 07:06:15;;;;;;;;;5.20;5.20;;;;;18.54;55.03;100256.56;5094517;28;8865;-57
2023/06/27 07:08:43;;;;;;;;;6.80;6.00;;;;;18.55;55.10;100255.53;5092985;28;8825;-58
2023/06/27 07:11:12;;;;;;;;;5.60;3.60;;;;;18.52;55.47;100255.84;5093790;28;8943;-58
2023/06/27 07:13:40;;;;;;;;;4.00;3.40;;;;;18.43;55.54;100259.53;5093364;28;8869;-59
2023/06/27 07:16:08;;;;;;;;;4.00;4.00;;;;;18.36;55.87;100257.69;5093154;28;8833;-59
2023/06/27 07:18:36;;;;;;;;;6.00;6.00;;;;;18.28;56.01;100261.16;5094725;28;8845;-59
2023/06/27 07:21:04;;;;;;;;;3.00;3.00;;;;;18.27;56.24;100259.47;5094236;28;8875;-59
2023/06/27 07:23:32;;;;;;;;;4.00;4.00;;;;;18.38;55.67;100256.47;5093991;28;8852;-59
2023/06/27 07:26:00;;;;;;;;;6.00;6.00;;;;;18.58;55.51;100257.91;5094049;28;8979;-59
2023/06/27 07:28:27;;;;;;;;;9.20;8.60;;;;;18.70;54.91;100251.19;5095049;28;8921;-60
2023/06/27 07:30:56;;;;;;;;;4.00;4.00;;;;;18.77;54.87;100246.81;5094554;28;8849;-58
2023/06/27 07:33:24;;;;;;;;;7.00;7.00;;;;;18.92;55.04;100247.00;5094564;28;8853;-59
2023/06/27 07:35:52;;;;;;;;;7.20;5.60;;;;;19.05;54.40;100252.75;5086347;28;8995;-58
2023/06/27 07:38:19;;;;;;;;;6.60;6.20;;;;;19.18;54.27;100245.81;5093965;28;8983;-58
2023/06/27 07:40:47;;;;;;;;;7.00;6.60;;;;;19.29;54.37;100241.97;5093858;28;8856;-59
2023/06/27 07:43:15;;;;;;;;;7.00;6.80;;;;;19.42;54.18;100243.13;5093937;28;8878;-57
2023/06/27 07:45:44;;;;;;;;;3.20;3.00;;;;;19.59;53.87;100231.31;5093863;28;8837;-58
2023/06/27 07:48:11;;;;;;;;;7.20;6.60;;;;;19.74;53.60;100232.28;5093854;28;8841;-59
2023/06/27 07:50:39;;;;;;;;;6.40;5.80;;;;;19.92;53.36;100237.44;5092500;28;8884;-59
2023/06/27 07:53:08;;;;;;;;;4.60;4.40;;;;;20.07;53.03;100227.59;5093033;28;8844;-57
2023/06/27 07:55:36;;;;;;;;;7.00;7.00;;;;;20.22;52.68;100223.16;5094548;28;8872;-60
2023/06/27 07:58:04;;;;;;;;;5.40;5.20;;;;;20.39;52.22;100222.06;5093991;28;8852;-60
2023/06/27 08:00:32;;;;;;;;;4.60;4.40;;;;;20.60;52.35;100228.53;5093352;28;8845;-57
2023/06/27 08:02:59;;;;;;;;;5.80;5.00;;;;;20.79;51.62;100231.59;5093666;28;9537;-59
2023/06/27 08:05:31;;;;;;;;;4.80;4.60;;;;;20.92;51.82;100219.38;5094442;28;8869;-60
2023/06/27 08:07:59;;;;;;;;;5.00;5.00;;;;;21.02;51.23;100220.81;5095226;28;8950;-58
2023/06/27 08:10:28;;;;;;;;;5.40;4.80;;;;;21.08;51.61;100225.47;5093472;28;8810;-58
2023/06/27 08:12:55;;;;;;;;;4.00;4.00;;;;;21.18;51.22;100220.69;5094934;28;8845;-60
2023/06/27 08:15:23;;;;;;;;;4.20;4.00;;;;;21.22;51.25;100216.56;5094373;28;8837;-59
2023/06/27 08:17:52;;;;;;;;;7.40;7.00;;;;;21.28;50.97;100221.25;5094059;28;8853;-58
2023/06/27 08:20:20;;;;;;;;;5.40;5.40;;;;;21.35;50.97;100219.50;5094591;28;8959;-60
2023/06/27 08:22:47;;;;;;;;;4.00;4.00;;;;;21.46;50.85;100222.59;5098023;28;8829;-58
2023/06/27 08:25:15;;;;;;;;;4.80;4.60;;;;;21.47;50.94;100226.13;5098680;28;8880;-60
2023/06/27 08:27:43;;;;;;;;;7.60;7.00;;;;;21.44;51.02;100231.94;5098351;28;8849;-60
2023/06/27 08:30:11;;;;;;;;;5.40;5.00;;;;;21.51;50.84;100230.16;5097584;28;8825;-59
2023/06/27 08:32:39;;;;;;;;;5.80;4.80;;;;;21.60;50.86;100216.34;5098267;28;8867;-60
2023/06/27 08:35:07;;;;;;;;;4.00;4.00;;;;;21.74;50.89;100209.28;5097306;28;8845;-59
2023/06/27 08:37:35;;;;;;;;;5.00;5.00;;;;;21.86;50.78;100205.09;5097295;28;8861;-58
2023/06/27 08:40:03;;;;;;;;;4.60;4.00;;;;;21.99;50.22;100210.66;5096819;28;8837;-60
2023/06/27 08:42:32;;;;;;;;;5.00;5.00;;;;;22.10;50.23;100202.06;5097066;28;9521;-58
2023/06/27 08:45:03;;;;;;;;;5.00;5.00;;;;;22.15;50.40;100211.31;5096770;28;8943;-58
2023/06/27 08:47:31;;;;;;;;;6.60;5.00;;;;;22.27;50.21;100214.38;5096589;28;8922;-60
2023/06/27 08:49:59;;;;;;;;;7.40;7.20;;;;;22.36;50.12;100211.38;5096798;28;8829;-57
2023/06/27 08:52:27;;;;;;;;;1.80;1.20;;;;;22.46;49.77;100202.97;5096876;28;8844;-58
2023/06/27 08:54:55;;;;;;;;;2.00;2.00;;;;;22.70;49.49;100205.31;5097510;28;8980;-58
2023/06/27 08:57:23;;;;;;;;;5.00;5.00;;;;;22.86;49.05;100199.63;5096776;28;8837;-59
2023/06/27 08:59:51;;;;;;;;;5.80;5.00;;;;;22.99;49.40;100194.34;5097039;28;8829;-60
2023/06/27 09:02:19;;;;;;;;;8.00;6.40;;;;;23.16;48.81;100196.59;5096890;28;8841;-59
2023/06/27 09:04:47;;;;;;;;;4.80;4.80;;;;;23.20;49.24;100192.47;5096871;28;8841;-60
2023/06/27 09:07:16;;;;;;;;;6.00;6.00;;;;;23.18;49.15;100193.69;5097084;28;9511;-59
2023/06/27 09:09:44;;;;;;;;;5.60;4.80;;;;;23.06;48.83;100193.34;5096928;28;8826;-60
2023/06/27 09:12:12;;;;;;;;;4.60;4.60;;;;;22.95;49.28;100201.19;5096864;28;9479;-58
2023/06/27 09:14:40;;;;;;;;;4.00;4.00;;;;;23.01;48.80;100184.97;5096814;28;8973;-59
2023/06/27 09:17:08;;;;;;;;;4.80;4.20;;;;;23.13;48.96;100185.28;5097388;28;8849;-60
2023/06/27 09:19:37;;;;;;;;;4.80;4.00;;;;;23.37;48.72;100193.03;5096530;28;8869;-60
2023/06/27 09:22:06;;;;;;;;;5.00;5.00;;;;;23.63;48.48;100193.19;5096852;28;8859;-59
2023/06/27 09:24:40;;;;;;;;;4.40;3.60;;;;;23.66;48.43;100193.63;5096977;28;8841;-58
2023/06/27 09:27:08;;;;;;;;;2.00;2.00;;;;;23.71;47.68;100183.00;5095491;28;8926;-59
2023/06/27 09:29:36;;;;;;;;;5.00;4.40;;;;;23.79;47.70;100182.00;5096962;28;9565;-60
2023/06/27 09:32:08;;;;;;;;;4.00;4.00;;;;;23.97;47.72;100172.28;5088585;28;8833;-58
2023/06/27 09:34:37;;;;;;;;;5.00;2.00;;;;;24.13;47.24;100169.22;5096684;28;8841;-58
2023/06/27 09:37:05;;;;;;;;;2.00;2.00;;;;;24.17;47.55;100165.06;5097125;28;8873;-59
2023/06/27 09:39:35;;;;;;;;;2.00;2.00;;;;;24.16;47.17;100168.81;5095353;28;8903;-59
2023/06/27 09:42:04;;;;;;;;;2.00;2.00;;;;;24.17;47.58;100180.53;5096425;28;8872;-58
2023/06/27 09:44:32;;;;;;;;;4.40;4.40;;;;;24.20;47.31;100174.72;5096295;28;8857;-60
2023/06/27 09:47:00;;;;;;;;;2.60;2.60;;;;;24.23;47.00;100169.69;5096745;28;8860;-59
2023/06/27 09:49:28;;;;;;;;;4.40;4.20;;;;;24.28;47.29;100169.91;5095891;28;8934;-59
2023/06/27 09:51:56;;;;;;;;;3.80;3.80;;;;;24.29;46.50;100170.75;5095006;28;8826;-59
2023/06/27 09:54:26;;;;;;;;;4.20;4.20;;;;;24.26;46.96;100173.91;5095131;28;8853;-59
2023/06/27 09:56:54;;;;;;;;;2.60;2.60;;;;;24.27;46.96;100170.94;5095170;28;8853;-58
2023/06/27 09:59:22;;;;;;;;;4.60;4.20;;;;;24.23;47.31;100171.56;5095150;28;8849;-58
2023/06/27 10:01:52;;;;;;;;;5.20;5.20;;;;;24.02;47.38;100172.53;5094464;28;8876;-58
2023/06/27 10:04:21;;;;;;;;;5.00;5.00;;;;;23.89;47.76;100175.19;5095184;28;8886;-59
2023/06/27 10:06:52;;;;;;;;;5.00;5.00;;;;;23.92;47.71;100176.66;5096092;28;8914;-58
2023/06/27 10:09:21;;;;;;;;;5.00;5.00;;;;;23.91;47.82;100185.88;5095808;28;8979;-58
2023/06/27 10:11:50;;;;;;;;;5.80;5.20;;;;;23.93;48.06;100189.22;5095381;28;8872;-58
2023/06/27 10:14:18;;;;;;;;;6.00;6.00;;;;;23.89;47.66;100187.97;5096228;28;8867;-61
2023/06/27 10:16:46;;;;;;;;;5.80;5.40;;;;;23.95;47.45;100187.13;5095856;28;9545;-60
2023/06/27 10:19:14;;;;;;;;;6.00;5.80;;;;;24.04;47.78;100185.94;5096080;28;8845;-58
2023/06/27 10:21:42;;;;;;;;;4.80;4.60;;;;;24.09;47.19;100178.84;5095361;28;8841;-58
2023/06/27 10:24:10;;;;;;;;;5.00;5.00;;;;;24.49;46.19;100177.13;5096293;28;8837;-58
2023/06/27 10:26:38;;;;;;;;;5.00;4.20;;;;;25.19;45.18;100172.00;5095347;28;9537;-58
2023/06/27 10:29:07;;;;;;;;;5.00;5.00;;;;;25.58;44.45;100171.97;5095474;28;8876;-58
2023/06/27 10:31:35;;;;;;;;;5.60;5.00;;;;;25.51;45.09;100171.16;5095700;28;8833;-58
2023/06/27 10:34:03;;;;;;;;;4.80;4.60;;;;;25.30;45.08;100180.41;5095114;28;8837;-58
2023/06/27 10:36:32;;;;;;;;;6.00;5.20;;;;;25.01;46.15;100174.47;5096153;28;8948;-60
2023/06/27 10:39:00;;;;;;;;;5.20;5.20;;;;;24.76;46.81;100176.13;5095262;28;8859;-60
2023/06/27 10:41:33;;;;;;;;;6.00;6.00;;;;;24.53;46.58;100179.22;5094625;28;8861;-58
2023/06/27 10:44:01;;;;;;;;;7.40;6.00;;;;;24.36;46.99;100171.63;5095885;28;8859;-58
2023/06/27 10:46:30;;;;;;;;;9.00;8.20;;;;;24.32;46.86;100173.06;5095439;28;9007;-58
2023/06/27 10:48:58;;;;;;;;;7.00;6.40;;;;;24.61;46.60;100168.16;5095116;28;8856;-59
2023/06/27 10:51:26;;;;;;;;;6.00;5.20;;;;;25.32;45.66;100166.56;5094846;28;8833;-58
2023/06/27 10:53:55;;;;;;;;;6.00;5.80;;;;;25.41;45.34;100165.31;5094942;28;8844;-58
2023/06/27 10:56:23;;;;;;;;;7.80;7.00;;;;;25.20;45.42;100165.50;5094601;28;8841;-59
2023/06/27 10:58:53;;;;;;;;;8.60;6.80;;;;;24.98;46.17;100170.31;5094403;28;9565;-58
2023/06/27 11:01:22;;;;;;;;;6.00;6.00;;;;;25.06;46.09;100166.53;5094824;28;8877;-59
2023/06/27 11:03:56;;;;;;;;;10.60;9.00;;;;;25.12;45.73;100163.81;5094329;28;8944;-58
2023/06/27 11:06:25;;;;;;;;;8.20;7.80;;;;;25.35;45.45;100157.97;5095426;28;8871;-58
2023/06/27 11:08:53;;;;;;;;;5.80;4.20;;;;;25.30;45.65;100165.94;5094875;28;8849;-58
2023/06/27 11:11:21;;;;;;;;;6.00;5.60;;;;;25.29;45.05;100164.25;5094916;28;8825;-59
2023/06/27 11:13:51;;;;;;;;;7.00;6.60;;;;;25.25;45.51;100163.00;5094718;28;9506;-58
2023/06/27 11:16:20;;;;;;;;;9.60;9.60;;;;;25.05;45.55;100165.72;5093983;28;8845;-58
2023/06/27 11:18:51;;;;;;;;;7.00;5.60;;;;;24.75;46.44;100158.97;5094427;28;8838;-58
2023/06/27 11:21:20;;;;;;;;;9.60;9.00;;;;;24.44;46.75;100161.34;5093938;28;8868;-58
2023/06/27 11:23:49;;;;;;;;;7.80;6.60;;;;;24.13;47.40;100158.31;5093845;28;8847;-58
2023/06/27 11:26:17;;;;;;;;;7.80;7.00;;;;;23.91;47.36;100162.19;5093345;28;8833;-60
2023/06/27 11:28:45;;;;;;;;;8.60;7.40;;;;;23.77;47.98;100163.16;5093621;28;8845;-58
2023/06/27 11:31:13;;;;;;;;;5.00;5.00;;;;;23.91;47.16;100159.47;5093875;28;8840;-58
2023/06/27 11:33:41;;;;;;;;;9.00;8.60;;;;;24.24;46.55;100167.78;5093715;28;8980;-58
2023/06/27 11:36:11;;;;;;;;;6.60;6.20;;;;;24.36;46.20;100160.72;5093209;28;8853;-59
2023/06/27 11:38:39;;;;;;;;;9.20;9.00;;;;;24.38;46.78;100164.06;5092923;28;8821;-58